Latest Weather Observations for Frederick Reef

IDQ60801

Issued at 9:02 pm EST Monday 2 March 2015 (issued every 30 minutes, with the page automatically refreshed every 10 minutes)

About weather observations | Map of weather stations | Latest weather observations for QLD | Other Formats
Station Details ID: 200701 Name: FREDERICK REEF Lat: -20.94 Lon: 154.40 Height: 4.9 m
Data from the previous 72 hours. | See also: Recent months for locations in Queensland
Date/Time
EST
Temp
°C
App
Temp
°C
Dew
Point
Rel
Hum
%
Delta-T
°C
Wind Press
QNH
hPa
Press
MSL
hPa
Rain
since 9 am
mm
Dir
 
Spd
km/h
Gust
km/h
Spd
kts
Gust
kts
02/09:00pm 27.0 - - - - SSE 46 52 25 28 1009.5 - -
02/08:30pm 27.2 - - - - SSE 46 52 25 28 1009.3 - -
02/08:00pm 27.1 - - - - S 44 50 24 27 1009.0 - -
02/07:30pm 27.2 - - - - SSE 41 46 22 25 1008.7 - -
02/07:00pm 27.0 - - - - SSE 43 50 23 27 1008.3 1008.3 -
02/06:30pm 27.0 - - - - S 41 48 22 26 1008.0 - -
02/06:00pm 26.9 - - - - SSE 33 39 18 21 1007.9 - -
02/05:30pm 27.1 - - - - S 39 43 21 23 1007.6 - -
02/05:00pm 27.3 - - - - SSE 35 41 19 22 1007.3 - -
02/04:30pm 27.1 - - - - S 37 43 20 23 1007.0 - -
02/04:00pm 27.3 - - - - SSE 33 39 18 21 1007.1 1006.9 -
02/03:30pm 27.3 - - - - S 37 41 20 22 1006.9 - -
02/03:00pm 27.1 - - - - S 35 39 19 21 1006.9 1006.8 -
02/02:30pm 27.0 - - - - S 33 37 18 20 1006.9 - -
02/02:00pm 27.0 - - - - S 33 35 18 19 1007.1 - -
02/01:30pm 27.1 - - - - S 33 37 18 20 1007.4 - -
02/01:00pm 27.1 - - - - S 32 35 17 19 1007.8 - -
02/12:30pm 27.1 - - - - S 26 30 14 16 1008.2 - -
02/12:00pm 27.1 - - - - S 24 26 13 14 1008.6 1008.4 -
02/11:30am 27.0 - - - - S 24 28 13 15 1009.2 - -
02/11:00am 27.2 - - - - S 24 26 13 14 1009.5 - -
02/10:30am 27.0 - - - - S 22 26 12 14 1009.5 - -
02/10:00am 27.0 - - - - S 26 28 14 15 1009.4 1009.2 -
02/09:30am 26.9 - - - - S 26 28 14 15 1009.5 - -
02/09:00am 26.8 - - - - SSE 26 30 14 16 1009.5 1009.5 -
02/08:30am 26.8 - - - - S 2 6 1 3 1009.2 - -
02/08:00am 26.7 - - - - S 2 6 1 3 1009.2 - -
02/07:30am 26.9 - - - - SSE 2 24 1 13 1009.0 - -
02/07:00am 26.8 - - - - SSE 20 24 11 13 1008.6 - -
02/06:30am 27.1 - - - - SE 20 24 11 13 1008.2 - -
02/06:00am 26.4 - - - - SSE 22 26 12 14 1008.1 - -
02/05:30am 26.5 - - - - SSE 20 24 11 13 1007.8 - -
02/05:00am 26.6 - - - - SSE 2 6 1 3 1007.3 - -
02/04:30am 26.4 - - - - CALM 0 2 0 1 1007.1 - -
02/04:00am 26.6 - - - - CALM 0 4 0 2 1007.0 - -
02/03:30am 26.4 - - - - CALM 0 4 0 2 1007.0 - -
02/03:00am 26.5 - - - - CALM 0 6 0 3 1006.9 1006.8 -
02/02:30am 26.6 - - - - CALM 0 6 0 3 1007.0 - -
02/02:00am 26.3 - - - - CALM 0 6 0 3 1007.2 - -
02/01:30am 26.8 - - - - CALM 0 4 0 2 1007.4 - -
02/01:00am 26.8 - - - - CALM 0 6 0 3 1007.9 - -
02/12:30am 26.8 - - - - CALM 0 6 0 3 1008.0 - -
02/12:00am 26.8 - - - - SE 2 6 1 3 1008.1 - -
 
Date/Time
EST
Temp
°C
App
Temp
°C
Dew
Point
Rel
Hum
%
Delta-T
°C
Wind Press
QNH
hPa
Press
MSL
hPa
Rain
since 9 am
mm
Dir
 
Spd
km/h
Gust
km/h
Spd
kts
Gust
kts
01/11:30pm 26.9 - - - - CALM 0 6 0 3 1008.5 - -
01/11:00pm 26.8 - - - - SSE 2 6 1 3 1008.8 1008.7 -
01/10:30pm 27.0 - - - - SE 2 6 1 3 1009.0 - -
01/10:00pm 27.0 - - - - SE 2 6 1 3 1008.9 1008.9 -
01/09:30pm 27.1 - - - - SE 2 6 1 3 1008.9 - -
01/09:00pm 26.9 - - - - SSE 2 6 1 3 1008.8 1008.7 -
01/08:30pm 26.9 - - - - SSE 2 6 1 3 1008.7 - -
01/08:00pm 27.0 - - - - SSE 2 6 1 3 1008.6 1008.5 -
01/07:30pm 27.0 - - - - S 2 6 1 3 1008.3 - -
01/07:00pm 27.2 - - - - S 2 6 1 3 1008.1 - -
01/06:30pm 27.1 - - - - S 4 30 2 16 1007.9 - -
01/06:00pm 27.2 - - - - S 30 33 16 18 1007.5 1007.5 -
01/05:30pm 27.3 - - - - S 32 35 17 19 1007.1 - -
01/05:00pm 27.1 - - - - S 32 35 17 19 1006.8 - -
01/04:30pm 27.2 - - - - S 32 35 17 19 1006.6 - -
01/04:00pm 27.1 - - - - S 28 32 15 17 1006.4 1006.3 -
01/03:30pm 27.4 - - - - S 28 32 15 17 1006.2 - -
01/03:00pm 27.4 - - - - S 26 30 14 16 1006.3 1006.2 -
01/02:30pm 26.7 - - - - S 30 33 16 18 1006.4 - -
01/02:00pm 27.3 - - - - S 24 28 13 15 1006.7 - -
01/01:30pm 27.4 - - - - S 24 28 13 15 1007.1 - -
01/01:00pm 27.2 - - - - S 22 26 12 14 1007.4 1007.2 -
01/12:30pm 27.1 - - - - S 19 24 10 13 1007.6 - -
01/12:00pm 26.8 - - - - S 26 28 14 15 1007.7 1007.6 -
01/11:30am 27.2 - - - - S 2 28 1 15 1007.9 - -
01/11:00am 27.0 - - - - S 20 24 11 13 1008.1 - -
01/10:30am 27.1 - - - - S 20 24 11 13 1008.5 - -
01/10:00am 27.0 - - - - S 19 24 10 13 1008.6 1008.5 -
01/09:30am 26.8 - - - - S 20 22 11 12 1008.6 - -
01/09:00am 26.8 - - - - S 20 24 11 13 1008.6 - -
01/08:30am 26.7 - - - - CALM 0 4 0 2 1008.4 - -
01/08:00am 26.7 - - - - CALM 0 6 0 3 1008.1 1008.1 -
01/07:30am 26.7 - - - - CALM 0 4 0 2 1007.7 - -
01/07:00am 26.8 - - - - SSE 2 24 1 13 1007.5 1007.5 -
01/06:30am 26.6 - - - - SSE 20 24 11 13 1007.3 - -
01/06:00am 26.5 - - - - SSE 22 26 12 14 1007.1 1007.0 -
01/05:30am 26.5 - - - - SSE 22 26 12 14 1007.0 - -
01/05:00am 26.5 - - - - SSE 2 6 1 3 1006.9 - -
01/04:30am 26.3 - - - - SSE 2 6 1 3 1006.9 - -
01/04:00am 26.4 - - - - SSE 2 6 1 3 1006.9 - -
01/03:30am 26.6 - - - - SSE 2 20 1 11 1006.9 - -
01/03:00am 26.7 - - - - CALM 0 6 0 3 1006.8 - -
01/02:30am 26.6 - - - - SSE 2 6 1 3 1006.7 - -
01/02:00am 26.7 - - - - CALM 0 6 0 3 1006.9 - -
01/01:30am 26.7 - - - - SSE 2 4 1 2 1007.3 - -
01/01:00am 26.8 - - - - CALM 0 6 0 3 1007.6 - -
01/12:30am 26.8 - - - - SSE 2 6 1 3 1008.0 - -
01/12:00am 26.6 - - - - SE 2 6 1 3 1008.2 - -
 
Date/Time
EST
Temp
°C
App
Temp
°C
Dew
Point
Rel
Hum
%
Delta-T
°C
Wind Press
QNH
hPa
Press
MSL
hPa
Rain
since 9 am
mm
Dir
 
Spd
km/h
Gust
km/h
Spd
kts
Gust
kts
28/11:30pm 26.9 - - - - CALM 0 4 0 2 1008.7 - -
28/11:00pm 26.9 - - - - SSE 2 6 1 3 1008.9 - -
28/10:30pm 26.8 - - - - SE 2 6 1 3 1008.9 - -
28/10:00pm 26.8 - - - - SSE 2 6 1 3 1008.9 - -
28/09:30pm 27.0 - - - - SSE 2 6 1 3 1008.8 - -
28/09:00pm 26.9 - - - - SE 2 4 1 2 1008.9 - -
28/08:30pm 27.0 - - - - SSE 2 7 1 4 1008.8 - -
28/08:00pm 27.0 - - - - SSE 2 6 1 3 1008.6 - -
28/07:30pm 27.1 - - - - S 2 6 1 3 1008.0 - -
28/07:00pm 26.9 - - - - SSE 2 7 1 4 1007.5 - -
28/06:30pm 27.0 - - - - SSE 2 33 1 18 1007.2 - -
28/06:00pm 27.2 - - - - S 32 33 17 18 1007.1 1007.0 -
28/05:30pm 27.2 - - - - S 32 35 17 19 1006.9 - -
28/05:00pm 27.1 - - - - S 30 32 16 17 1006.7 1006.6 -
28/04:30pm 27.1 - - - - S 30 33 16 18 1006.5 - -
28/04:00pm 27.1 - - - - S 28 33 15 18 1006.4 1006.3 -
28/03:30pm 27.1 - - - - S 28 32 15 17 1006.4 - -
28/03:00pm 27.2 - - - - S 28 32 15 17 1006.5 - -
28/02:30pm 27.1 - - - - S 28 32 15 17 1006.5 - -
28/02:00pm 27.2 - - - - S 30 32 16 17 1006.7 1006.6 -
28/01:30pm 27.2 - - - - SSE 30 32 16 17 1006.9 - -
28/01:00pm 27.3 - - - - S 30 32 16 17 1007.1 1007.0 -
28/12:30pm 27.3 - - - - SSE 28 33 15 18 1007.4 - -
28/12:00pm 27.2 - - - - SSE 30 32 16 17 1007.8 - -
28/11:30am 26.9 - - - - SE 33 39 18 21 1008.0 - -
28/11:00am 27.2 - - - - SE 30 33 16 18 1008.0 1007.9 -
28/10:30am 27.4 - - - - ESE 30 33 16 18 1008.1 - -
28/10:00am 27.3 - - - - SE 28 30 15 16 1008.1 1007.9 -
28/09:30am 26.6 - - - - ESE 24 28 13 15 1008.4 - -
28/09:00am 27.1 - - - - SE 26 32 14 17 1008.1 1008.0 -
28/08:30am 27.3 - - - - SSE 26 30 14 16 1007.8 - -
28/08:00am 27.2 - - - - SSE 28 32 15 17 1008.0 1007.8 -
28/07:30am 27.1 - - - - SSE 22 26 12 14 1007.6 - -
28/07:00am 27.2 - - - - SSE 20 24 11 13 1007.3 1007.3 -
28/06:30am 26.9 - - - - SSE 22 28 12 15 1007.1 - -
28/06:00am 26.9 - - - - SSE 24 28 13 15 1006.8 - -
28/05:30am 27.1 - - - - SSE 22 26 12 14 1006.4 - -
28/05:00am 27.0 - - - - SE 2 6 1 3 1005.9 - -
28/04:30am 27.0 - - - - SSE 2 6 1 3 1006.0 - -
28/04:00am 26.9 - - - - CALM 0 4 0 2 1005.9 1005.8 -
28/03:30am 26.8 - - - - SE 2 6 1 3 1005.8 - -
28/03:00am 26.8 - - - - SE 2 6 1 3 1005.6 - -
28/02:30am 27.0 - - - - CALM 0 4 0 2 1005.8 - -
28/02:00am 27.0 - - - - CALM 0 4 0 2 1005.9 1005.8 -
28/01:30am 26.8 - - - - SE 2 6 1 3 1006.7 - -
28/01:00am 26.9 - - - - SE 2 6 1 3 1006.6 1006.5 -
28/12:30am 27.0 - - - - SE 2 6 1 3 1006.9 - -
28/12:00am 27.0 - - - - ESE 2 6 1 3 1007.1 1007.1 -
 
Date/Time
EST
Temp
°C
App
Temp
°C
Dew
Point
Rel
Hum
%
Delta-T
°C
Wind Press
QNH
hPa
Press
MSL
hPa
Rain
since 9 am
mm
Dir
 
Spd
km/h
Gust
km/h
Spd
kts
Gust
kts
27/11:30pm 27.2 - - - - SE 2 6 1 3 1007.3 - -
27/11:00pm 27.1 - - - - SE 2 6 1 3 1007.5 1007.2 -
27/10:30pm 26.9 - - - - SE 2 4 1 2 1007.5 - -
27/10:00pm 27.2 - - - - SE 2 6 1 3 1007.6 1007.6 -
27/09:30pm 27.1 - - - - SE 2 6 1 3 1007.6 - -

Other Formats:

Comma delimited format used in spreadsheet applications
http://www.bom.gov.au/fwo/IDQ60801/IDQ60801.94393.axf

JavaScript Object Notation format (JSON) in row-major order
http://www.bom.gov.au/fwo/IDQ60801/IDQ60801.94393.json